sensor_id;sensor_type;location;lat;lon;timestamp;pressure;altitude;pressure_sealevel;temperature;humidity
69751;BME280;57335;52.288;6.056;2022-10-16T00:02:17;100941.09;;;12.51;95.08
69751;BME280;57335;52.288;6.056;2022-10-16T00:04:44;100929.25;;;12.42;95.33
69751;BME280;57335;52.288;6.056;2022-10-16T00:07:10;100941.00;;;12.39;95.16
69751;BME280;57335;52.288;6.056;2022-10-16T00:09:36;100942.66;;;12.33;95.15
69751;BME280;57335;52.288;6.056;2022-10-16T00:12:03;100944.31;;;12.28;95.19
69751;BME280;57335;52.288;6.056;2022-10-16T00:14:29;100954.81;;;12.28;95.20
69751;BME280;57335;52.288;6.056;2022-10-16T00:16:56;100956.28;;;12.24;95.52
69751;BME280;57335;52.288;6.056;2022-10-16T00:19:22;100958.31;;;12.22;95.31
69751;BME280;57335;52.288;6.056;2022-10-16T00:21:49;100950.84;;;12.18;95.78
69751;BME280;57335;52.288;6.056;2022-10-16T00:24:15;100954.72;;;12.16;95.50
69751;BME280;57335;52.288;6.056;2022-10-16T00:26:41;100955.31;;;12.18;95.98
69751;BME280;57335;52.288;6.056;2022-10-16T00:29:08;100962.19;;;12.19;95.79
69751;BME280;57335;52.288;6.056;2022-10-16T00:31:35;100954.97;;;12.08;96.02
69751;BME280;57335;52.288;6.056;2022-10-16T00:34:02;100968.63;;;12.16;96.26
69751;BME280;57335;52.288;6.056;2022-10-16T00:36:28;100958.97;;;12.10;96.74
69751;BME280;57335;52.288;6.056;2022-10-16T00:38:58;100961.00;;;12.15;96.88
69751;BME280;57335;52.288;6.056;2022-10-16T00:41:31;100955.34;;;12.11;97.17
69751;BME280;57335;52.288;6.056;2022-10-16T00:44:02;100960.75;;;12.16;97.20
69751;BME280;57335;52.288;6.056;2022-10-16T00:46:38;100958.97;;;12.17;97.13
69751;BME280;57335;52.288;6.056;2022-10-16T00:49:09;100956.53;;;12.15;97.42
69751;BME280;57335;52.288;6.056;2022-10-16T00:54:14;100964.56;;;12.21;97.09
69751;BME280;57335;52.288;6.056;2022-10-16T00:56:42;100965.00;;;12.17;96.63
69751;BME280;57335;52.288;6.056;2022-10-16T00:59:15;100967.00;;;12.22;96.60
69751;BME280;57335;52.288;6.056;2022-10-16T01:01:42;100962.22;;;12.12;96.58
69751;BME280;57335;52.288;6.056;2022-10-16T01:04:08;100959.75;;;12.17;96.73
69751;BME280;57335;52.288;6.056;2022-10-16T01:13:04;100962.78;;;12.21;96.73
69751;BME280;57335;52.288;6.056;2022-10-16T01:15:42;100946.44;;;12.12;96.73
69751;BME280;57335;52.288;6.056;2022-10-16T01:18:22;100961.34;;;12.18;97.02
69751;BME280;57335;52.288;6.056;2022-10-16T01:20:56;100956.94;;;12.19;96.78
69751;BME280;57335;52.288;6.056;2022-10-16T01:28:29;100968.81;;;12.22;96.80
69751;BME280;57335;52.288;6.056;2022-10-16T01:31:01;100961.16;;;12.20;96.73
69751;BME280;57335;52.288;6.056;2022-10-16T01:33:35;100968.81;;;12.22;97.15
69751;BME280;57335;52.288;6.056;2022-10-16T01:36:08;100969.78;;;12.27;96.99
69751;BME280;57335;52.288;6.056;2022-10-16T01:38:38;100947.16;;;12.26;96.82
69751;BME280;57335;52.288;6.056;2022-10-16T01:41:11;100959.22;;;12.34;96.73
69751;BME280;57335;52.288;6.056;2022-10-16T01:43:44;100957.63;;;12.33;96.79
69751;BME280;57335;52.288;6.056;2022-10-16T01:46:14;100964.06;;;12.37;96.33
69751;BME280;57335;52.288;6.056;2022-10-16T01:48:42;100948.91;;;12.32;96.57
69751;BME280;57335;52.288;6.056;2022-10-16T01:51:13;100954.72;;;12.41;96.65
69751;BME280;57335;52.288;6.056;2022-10-16T01:53:44;100961.00;;;12.40;96.99
69751;BME280;57335;52.288;6.056;2022-10-16T01:56:13;100959.97;;;12.41;96.99
69751;BME280;57335;52.288;6.056;2022-10-16T01:58:47;100961.78;;;12.41;96.65
69751;BME280;57335;52.288;6.056;2022-10-16T02:01:18;100962.75;;;12.46;96.60
69751;BME280;57335;52.288;6.056;2022-10-16T02:03:46;100967.22;;;12.46;96.83
69751;BME280;57335;52.288;6.056;2022-10-16T02:06:16;100964.00;;;12.44;96.45
69751;BME280;57335;52.288;6.056;2022-10-16T02:08:42;100961.75;;;12.47;96.74
69751;BME280;57335;52.288;6.056;2022-10-16T02:11:09;100971.69;;;12.45;96.80
69751;BME280;57335;52.288;6.056;2022-10-16T02:13:40;100978.53;;;12.46;96.65
69751;BME280;57335;52.288;6.056;2022-10-16T02:16:10;100966.41;;;12.45;97.13
69751;BME280;57335;52.288;6.056;2022-10-16T02:18:38;100957.56;;;12.40;97.58
69751;BME280;57335;52.288;6.056;2022-10-16T02:21:24;100967.88;;;12.41;98.20
69751;BME280;57335;52.288;6.056;2022-10-16T02:29:06;100965.59;;;12.45;98.74
69751;BME280;57335;52.288;6.056;2022-10-16T02:31:35;100969.84;;;12.46;98.73
69751;BME280;57335;52.288;6.056;2022-10-16T02:34:05;100973.72;;;12.43;98.69
69751;BME280;57335;52.288;6.056;2022-10-16T02:36:34;100972.47;;;12.46;98.52
69751;BME280;57335;52.288;6.056;2022-10-16T02:39:02;100971.81;;;12.50;98.44
69751;BME280;57335;52.288;6.056;2022-10-16T02:41:30;100975.50;;;12.49;98.53
69751;BME280;57335;52.288;6.056;2022-10-16T02:43:56;100969.63;;;12.47;98.73
69751;BME280;57335;52.288;6.056;2022-10-16T02:46:23;100974.44;;;12.50;98.63
69751;BME280;57335;52.288;6.056;2022-10-16T02:48:49;100982.94;;;12.52;99.04
69751;BME280;57335;52.288;6.056;2022-10-16T02:51:16;100972.00;;;12.55;99.12
69751;BME280;57335;52.288;6.056;2022-10-16T02:53:42;100975.41;;;12.56;99.00
69751;BME280;57335;52.288;6.056;2022-10-16T02:56:08;100978.84;;;12.56;99.37
69751;BME280;57335;52.288;6.056;2022-10-16T02:58:35;100977.25;;;12.55;100.00
69751;BME280;57335;52.288;6.056;2022-10-16T03:01:01;100973.44;;;12.51;99.64
69751;BME280;57335;52.288;6.056;2022-10-16T03:03:28;100978.84;;;12.56;99.54
69751;BME280;57335;52.288;6.056;2022-10-16T03:05:54;100989.34;;;12.56;99.91
69751;BME280;57335;52.288;6.056;2022-10-16T03:08:20;100981.13;;;12.53;99.72
69751;BME280;57335;52.288;6.056;2022-10-16T03:10:47;100986.53;;;12.58;99.64
69751;BME280;57335;52.288;6.056;2022-10-16T03:13:13;100989.59;;;12.55;99.87
69751;BME280;57335;52.288;6.056;2022-10-16T03:15:39;100998.66;;;12.59;100.00
69751;BME280;57335;52.288;6.056;2022-10-16T03:18:06;101003.28;;;12.64;100.00
69751;BME280;57335;52.288;6.056;2022-10-16T03:20:33;101009.13;;;12.66;99.64
69751;BME280;57335;52.288;6.056;2022-10-16T03:22:59;100995.38;;;12.64;99.72
69751;BME280;57335;52.288;6.056;2022-10-16T03:25:25;100997.34;;;12.68;99.69
69751;BME280;57335;52.288;6.056;2022-10-16T03:27:52;100997.16;;;12.70;99.58
69751;BME280;57335;52.288;6.056;2022-10-16T03:30:18;100992.88;;;12.69;99.34
69751;BME280;57335;52.288;6.056;2022-10-16T03:32:44;100989.25;;;12.70;99.34
69751;BME280;57335;52.288;6.056;2022-10-16T03:35:11;100995.09;;;12.72;99.41
69751;BME280;57335;52.288;6.056;2022-10-16T03:37:37;100984.41;;;12.67;99.28
69751;BME280;57335;52.288;6.056;2022-10-16T03:40:04;100991.69;;;12.71;98.88
69751;BME280;57335;52.288;6.056;2022-10-16T03:42:31;100990.50;;;12.67;99.03
69751;BME280;57335;52.288;6.056;2022-10-16T03:44:57;100995.16;;;12.65;98.93
69751;BME280;57335;52.288;6.056;2022-10-16T03:47:23;100998.44;;;12.61;99.09
69751;BME280;57335;52.288;6.056;2022-10-16T03:49:50;100991.25;;;12.49;99.20
69751;BME280;57335;52.288;6.056;2022-10-16T03:52:17;100993.69;;;12.51;99.40
69751;BME280;57335;52.288;6.056;2022-10-16T03:54:44;100989.84;;;12.47;100.00
69751;BME280;57335;52.288;6.056;2022-10-16T03:57:11;100998.56;;;12.47;100.00
69751;BME280;57335;52.288;6.056;2022-10-16T03:59:37;100992.91;;;12.44;100.00
69751;BME280;57335;52.288;6.056;2022-10-16T04:02:03;100997.13;;;12.45;100.00
69751;BME280;57335;52.288;6.056;2022-10-16T04:04:30;101005.41;;;12.48;100.00
69751;BME280;57335;52.288;6.056;2022-10-16T04:06:56;100990.94;;;12.39;100.00
69751;BME280;57335;52.288;6.056;2022-10-16T04:09:22;101006.66;;;12.46;100.00
69751;BME280;57335;52.288;6.056;2022-10-16T04:11:49;101009.47;;;12.44;100.00
69751;BME280;57335;52.288;6.056;2022-10-16T04:14:15;101008.09;;;12.42;100.00
69751;BME280;57335;52.288;6.056;2022-10-16T04:16:41;101008.88;;;12.42;100.00
69751;BME280;57335;52.288;6.056;2022-10-16T04:19:09;101007.72;;;12.38;100.00
69751;BME280;57335;52.288;6.056;2022-10-16T04:21:35;101012.38;;;12.36;100.00
69751;BME280;57335;52.288;6.056;2022-10-16T04:24:02;101030.34;;;12.39;100.00
69751;BME280;57335;52.288;6.056;2022-10-16T04:26:29;101023.91;;;12.35;100.00
69751;BME280;57335;52.288;6.056;2022-10-16T04:28:56;101028.72;;;12.38;100.00
69751;BME280;57335;52.288;6.056;2022-10-16T04:31:22;101029.59;;;12.32;100.00
69751;BME280;57335;52.288;6.056;2022-10-16T04:33:48;101033.59;;;12.34;100.00
69751;BME280;57335;52.288;6.056;2022-10-16T04:36:15;101044.34;;;12.33;100.00
69751;BME280;57335;52.288;6.056;2022-10-16T04:38:41;101044.34;;;12.33;100.00
69751;BME280;57335;52.288;6.056;2022-10-16T04:41:08;101056.66;;;12.32;100.00
69751;BME280;57335;52.288;6.056;2022-10-16T04:43:34;101058.50;;;12.32;100.00
69751;BME280;57335;52.288;6.056;2022-10-16T04:46:01;101063.16;;;12.30;100.00
69751;BME280;57335;52.288;6.056;2022-10-16T04:48:28;101046.63;;;12.23;100.00
69751;BME280;57335;52.288;6.056;2022-10-16T04:50:54;101050.28;;;12.22;100.00
69751;BME280;57335;52.288;6.056;2022-10-16T04:53:20;101053.31;;;12.18;100.00
69751;BME280;57335;52.288;6.056;2022-10-16T04:55:47;101061.19;;;12.18;100.00
69751;BME280;57335;52.288;6.056;2022-10-16T04:58:13;101073.13;;;12.14;100.00
69751;BME280;57335;52.288;6.056;2022-10-16T05:00:39;101072.97;;;12.09;100.00
69751;BME280;57335;52.288;6.056;2022-10-16T05:03:06;101069.31;;;12.10;100.00
69751;BME280;57335;52.288;6.056;2022-10-16T05:05:33;101069.97;;;12.06;100.00
69751;BME280;57335;52.288;6.056;2022-10-16T05:07:59;101074.22;;;12.07;100.00
69751;BME280;57335;52.288;6.056;2022-10-16T05:10:26;101069.16;;;12.05;100.00
69751;BME280;57335;52.288;6.056;2022-10-16T05:12:52;101072.19;;;12.09;100.00
69751;BME280;57335;52.288;6.056;2022-10-16T05:15:18;101078.25;;;12.09;100.00
69751;BME280;57335;52.288;6.056;2022-10-16T05:17:45;101084.50;;;12.08;100.00
69751;BME280;57335;52.288;6.056;2022-10-16T05:20:11;101080.06;;;12.02;100.00
69751;BME280;57335;52.288;6.056;2022-10-16T05:22:38;101088.34;;;12.06;100.00
69751;BME280;57335;52.288;6.056;2022-10-16T05:25:05;101101.88;;;12.09;100.00
69751;BME280;57335;52.288;6.056;2022-10-16T05:27:31;101094.41;;;12.06;100.00
69751;BME280;57335;52.288;6.056;2022-10-16T05:29:57;101095.44;;;12.05;100.00
69751;BME280;57335;52.288;6.056;2022-10-16T05:32:24;101103.91;;;12.07;100.00
69751;BME280;57335;52.288;6.056;2022-10-16T05:34:50;101113.78;;;12.12;100.00
69751;BME280;57335;52.288;6.056;2022-10-16T05:37:17;101109.75;;;12.09;100.00
69751;BME280;57335;52.288;6.056;2022-10-16T05:39:43;101108.31;;;12.13;100.00
69751;BME280;57335;52.288;6.056;2022-10-16T05:42:09;101118.84;;;12.13;100.00
69751;BME280;57335;52.288;6.056;2022-10-16T05:44:36;101124.28;;;12.12;100.00
69751;BME280;57335;52.288;6.056;2022-10-16T05:47:02;101122.50;;;12.06;100.00
69751;BME280;57335;52.288;6.056;2022-10-16T05:49:28;101114.44;;;12.01;100.00
69751;BME280;57335;52.288;6.056;2022-10-16T05:51:55;101137.47;;;12.05;100.00
69751;BME280;57335;52.288;6.056;2022-10-16T05:54:21;101130.63;;;11.97;100.00
69751;BME280;57335;52.288;6.056;2022-10-16T05:56:47;101143.31;;;12.01;100.00
69751;BME280;57335;52.288;6.056;2022-10-16T05:59:14;101142.13;;;11.96;100.00
69751;BME280;57335;52.288;6.056;2022-10-16T06:01:40;101151.84;;;11.96;100.00
69751;BME280;57335;52.288;6.056;2022-10-16T06:04:08;101153.47;;;11.97;100.00
69751;BME280;57335;52.288;6.056;2022-10-16T06:06:34;101149.41;;;11.94;100.00
69751;BME280;57335;52.288;6.056;2022-10-16T06:09:01;101157.09;;;11.96;100.00
69751;BME280;57335;52.288;6.056;2022-10-16T06:11:29;101159.53;;;11.91;100.00
69751;BME280;57335;52.288;6.056;2022-10-16T06:13:57;101163.56;;;11.93;100.00
69751;BME280;57335;52.288;6.056;2022-10-16T06:16:25;101158.94;;;11.89;100.00
69751;BME280;57335;52.288;6.056;2022-10-16T06:18:53;101164.78;;;11.91;100.00
69751;BME280;57335;52.288;6.056;2022-10-16T06:21:22;101166.38;;;11.85;100.00
69751;BME280;57335;52.288;6.056;2022-10-16T06:23:49;101171.84;;;11.84;100.00
69751;BME280;57335;52.288;6.056;2022-10-16T06:26:18;101184.78;;;11.92;100.00
69751;BME280;57335;52.288;6.056;2022-10-16T06:28:45;101182.34;;;11.97;100.00
69751;BME280;57335;52.288;6.056;2022-10-16T06:31:13;101177.28;;;12.02;100.00
69751;BME280;57335;52.288;6.056;2022-10-16T06:33:40;101189.78;;;12.13;100.00
69751;BME280;57335;52.288;6.056;2022-10-16T06:36:10;101196.59;;;12.28;100.00
69751;BME280;57335;52.288;6.056;2022-10-16T06:38:37;101198.53;;;12.46;100.00
69751;BME280;57335;52.288;6.056;2022-10-16T06:41:04;101196.00;;;12.64;100.00
69751;BME280;57335;52.288;6.056;2022-10-16T06:43:32;101210.84;;;12.90;100.00
69751;BME280;57335;52.288;6.056;2022-10-16T06:45:59;101210.97;;;13.02;100.00
69751;BME280;57335;52.288;6.056;2022-10-16T06:48:26;101220.84;;;13.07;99.90
69751;BME280;57335;52.288;6.056;2022-10-16T06:51:00;101224.66;;;13.11;99.31
69751;BME280;57335;52.288;6.056;2022-10-16T06:53:30;101232.53;;;13.11;99.20
69751;BME280;57335;52.288;6.056;2022-10-16T06:58:36;101245.56;;;13.06;98.94
69751;BME280;57335;52.288;6.056;2022-10-16T07:01:04;101250.59;;;13.07;99.34
69751;BME280;57335;52.288;6.056;2022-10-16T07:03:30;101256.28;;;13.04;99.41
69751;BME280;57335;52.288;6.056;2022-10-16T07:05:57;101250.03;;;12.98;99.18
69751;BME280;57335;52.288;6.056;2022-10-16T07:08:23;101254.28;;;13.00;99.46
69751;BME280;57335;52.288;6.056;2022-10-16T07:10:58;101265.81;;;13.05;99.79
69751;BME280;57335;52.288;6.056;2022-10-16T07:13:24;101269.38;;;13.11;99.91
69751;BME280;57335;52.288;6.056;2022-10-16T07:15:50;101268.56;;;13.17;99.61
69751;BME280;57335;52.288;6.056;2022-10-16T07:18:17;101278.66;;;13.20;99.27
69751;BME280;57335;52.288;6.056;2022-10-16T07:20:43;101260.88;;;13.15;99.06
69751;BME280;57335;52.288;6.056;2022-10-16T07:23:09;101278.41;;;13.28;98.57
69751;BME280;57335;52.288;6.056;2022-10-16T07:25:36;101287.94;;;13.29;98.69
69751;BME280;57335;52.288;6.056;2022-10-16T07:28:02;101292.16;;;13.37;98.51
69751;BME280;57335;52.288;6.056;2022-10-16T07:30:29;101300.19;;;13.42;98.07
69751;BME280;57335;52.288;6.056;2022-10-16T07:32:55;101301.25;;;13.41;97.95
69751;BME280;57335;52.288;6.056;2022-10-16T07:35:21;101291.66;;;13.47;97.60
69751;BME280;57335;52.288;6.056;2022-10-16T07:37:48;101308.44;;;13.52;96.72
69751;BME280;57335;52.288;6.056;2022-10-16T07:40:14;101300.72;;;13.57;97.09
69751;BME280;57335;52.288;6.056;2022-10-16T07:42:40;101305.38;;;13.55;95.72
69751;BME280;57335;52.288;6.056;2022-10-16T07:45:07;101309.41;;;13.58;96.23
69751;BME280;57335;52.288;6.056;2022-10-16T07:47:33;101301.50;;;13.58;96.55
69751;BME280;57335;52.288;6.056;2022-10-16T07:49:59;101305.81;;;13.52;96.38
69751;BME280;57335;52.288;6.056;2022-10-16T07:52:26;101310.66;;;13.55;95.83
69751;BME280;57335;52.288;6.056;2022-10-16T07:54:52;101312.47;;;13.55;96.33
69751;BME280;57335;52.288;6.056;2022-10-16T07:57:23;101316.72;;;13.56;96.67
69751;BME280;57335;52.288;6.056;2022-10-16T07:59:50;101313.09;;;13.57;96.01
69751;BME280;57335;52.288;6.056;2022-10-16T08:02:16;101303.97;;;13.53;96.29
69751;BME280;57335;52.288;6.056;2022-10-16T08:04:43;101311.03;;;13.59;95.67
69751;BME280;57335;52.288;6.056;2022-10-16T08:07:09;101311.78;;;13.66;96.01
69751;BME280;57335;52.288;6.056;2022-10-16T08:09:35;101323.69;;;13.69;96.49
69751;BME280;57335;52.288;6.056;2022-10-16T08:12:02;101333.75;;;13.79;96.40
69751;BME280;57335;52.288;6.056;2022-10-16T08:14:28;101331.72;;;13.81;96.51
69751;BME280;57335;52.288;6.056;2022-10-16T08:16:55;101341.56;;;13.92;96.59
69751;BME280;57335;52.288;6.056;2022-10-16T08:19:21;101343.72;;;14.02;96.06
69751;BME280;57335;52.288;6.056;2022-10-16T08:21:47;101352.53;;;14.14;95.76
69751;BME280;57335;52.288;6.056;2022-10-16T08:24:14;101346.59;;;14.19;94.17
69751;BME280;57335;52.288;6.056;2022-10-16T08:26:40;101362.28;;;14.32;94.18
69751;BME280;57335;52.288;6.056;2022-10-16T08:29:06;101366.25;;;14.41;93.23
69751;BME280;57335;52.288;6.056;2022-10-16T08:31:33;101384.22;;;14.51;93.14
69751;BME280;57335;52.288;6.056;2022-10-16T08:33:59;101370.69;;;14.66;93.75
69751;BME280;57335;52.288;6.056;2022-10-16T08:36:26;101365.38;;;15.03;94.42
69751;BME280;57335;52.288;6.056;2022-10-16T08:38:52;101368.31;;;15.55;92.67
69751;BME280;57335;52.288;6.056;2022-10-16T08:44:31;101365.50;;;16.86;86.04
69751;BME280;57335;52.288;6.056;2022-10-16T08:47:21;101371.53;;;17.56;83.68
69751;BME280;57335;52.288;6.056;2022-10-16T08:49:58;101392.59;;;18.30;78.28
69751;BME280;57335;52.288;6.056;2022-10-16T08:52:31;101391.00;;;18.90;77.36
69751;BME280;57335;52.288;6.056;2022-10-16T08:54:58;101391.19;;;19.33;71.78
69751;BME280;57335;52.288;6.056;2022-10-16T08:57:26;101401.47;;;19.79;74.29
69751;BME280;57335;52.288;6.056;2022-10-16T08:59:53;101410.81;;;20.19;71.44
69751;BME280;57335;52.288;6.056;2022-10-16T09:10:53;101419.22;;;21.01;63.84
69751;BME280;57335;52.288;6.056;2022-10-16T09:13:33;101419.78;;;21.18;65.54
69751;BME280;57335;52.288;6.056;2022-10-16T09:16:13;101440.09;;;21.29;62.81
69751;BME280;57335;52.288;6.056;2022-10-16T09:18:48;101443.81;;;21.34;64.71
69751;BME280;57335;52.288;6.056;2022-10-16T09:21:28;101442.47;;;21.36;65.29
69751;BME280;57335;52.288;6.056;2022-10-16T09:24:14;101444.97;;;21.53;63.99
69751;BME280;57335;52.288;6.056;2022-10-16T09:26:42;101448.41;;;21.59;63.46
69751;BME280;57335;52.288;6.056;2022-10-16T09:29:12;101455.63;;;21.63;64.96
69751;BME280;57335;52.288;6.056;2022-10-16T09:31:39;101452.16;;;21.63;63.36
69751;BME280;57335;52.288;6.056;2022-10-16T09:34:06;101460.44;;;21.51;62.57
69751;BME280;57335;52.288;6.056;2022-10-16T09:36:40;101455.84;;;21.41;63.15
69751;BME280;57335;52.288;6.056;2022-10-16T09:39:09;101467.81;;;21.34;62.80
69751;BME280;57335;52.288;6.056;2022-10-16T09:41:37;101465.38;;;21.22;63.30
69751;BME280;57335;52.288;6.056;2022-10-16T09:44:18;101459.94;;;20.91;62.72
69751;BME280;57335;52.288;6.056;2022-10-16T09:46:46;101470.22;;;20.67;64.04
69751;BME280;57335;52.288;6.056;2022-10-16T09:49:21;101473.00;;;20.45;65.79
69751;BME280;57335;52.288;6.056;2022-10-16T09:51:48;101463.22;;;20.18;65.36
69751;BME280;57335;52.288;6.056;2022-10-16T09:54:17;101476.50;;;20.13;67.62
69751;BME280;57335;52.288;6.056;2022-10-16T09:56:44;101485.31;;;20.19;68.06
69751;BME280;57335;52.288;6.056;2022-10-16T09:59:13;101474.44;;;20.25;66.80
69751;BME280;57335;52.288;6.056;2022-10-16T10:01:46;101482.50;;;20.36;67.08
69751;BME280;57335;52.288;6.056;2022-10-16T10:04:14;101482.81;;;20.44;67.48
69751;BME280;57335;52.288;6.056;2022-10-16T10:06:46;101482.34;;;20.52;66.68
69751;BME280;57335;52.288;6.056;2022-10-16T10:09:21;101477.28;;;20.51;66.44
69751;BME280;57335;52.288;6.056;2022-10-16T10:11:56;101478.03;;;20.41;66.61
69751;BME280;57335;52.288;6.056;2022-10-16T10:14:25;101480.94;;;20.40;66.87
69751;BME280;57335;52.288;6.056;2022-10-16T10:22:23;101487.50;;;20.27;64.97
69751;BME280;57335;52.288;6.056;2022-10-16T10:30:39;101480.81;;;19.65;66.04
69751;BME280;57335;52.288;6.056;2022-10-16T10:36:01;101495.56;;;19.72;66.62
69751;BME280;57335;52.288;6.056;2022-10-16T10:38:52;101500.31;;;19.70;65.76
69751;BME280;57335;52.288;6.056;2022-10-16T10:41:36;101504.13;;;19.58;67.31
69751;BME280;57335;52.288;6.056;2022-10-16T10:55:09;101520.22;;;19.24;68.51
69751;BME280;57335;52.288;6.056;2022-10-16T11:00:45;101522.16;;;19.50;69.56
69751;BME280;57335;52.288;6.056;2022-10-16T11:06:00;101505.78;;;19.37;66.84
69751;BME280;57335;52.288;6.056;2022-10-16T11:08:35;101522.31;;;19.44;67.34
69751;BME280;57335;52.288;6.056;2022-10-16T11:11:04;101512.75;;;19.43;66.40
69751;BME280;57335;52.288;6.056;2022-10-16T11:16:26;101519.66;;;19.44;67.38
69751;BME280;57335;52.288;6.056;2022-10-16T11:19:14;101527.66;;;19.44;65.19
69751;BME280;57335;52.288;6.056;2022-10-16T11:21:51;101531.09;;;19.44;65.67
69751;BME280;57335;52.288;6.056;2022-10-16T11:24:42;101524.44;;;19.42;65.90
69751;BME280;57335;52.288;6.056;2022-10-16T11:27:17;101539.63;;;19.46;64.61
69751;BME280;57335;52.288;6.056;2022-10-16T11:29:55;101537.78;;;19.47;65.62
69751;BME280;57335;52.288;6.056;2022-10-16T11:32:35;101535.38;;;19.45;66.36
69751;BME280;57335;52.288;6.056;2022-10-16T11:35:14;101533.84;;;19.49;65.39
69751;BME280;57335;52.288;6.056;2022-10-16T11:37:46;101536.13;;;19.63;65.28
69751;BME280;57335;52.288;6.056;2022-10-16T11:40:28;101534.19;;;19.58;65.42
69751;BME280;57335;52.288;6.056;2022-10-16T11:43:28;101538.81;;;19.68;65.08
69751;BME280;57335;52.288;6.056;2022-10-16T11:45:58;101543.97;;;19.75;65.47
69751;BME280;57335;52.288;6.056;2022-10-16T11:48:41;101547.22;;;19.82;64.68
69751;BME280;57335;52.288;6.056;2022-10-16T11:51:33;101559.03;;;19.91;63.17
69751;BME280;57335;52.288;6.056;2022-10-16T11:56:38;101558.50;;;19.89;64.82
69751;BME280;57335;52.288;6.056;2022-10-16T11:59:22;101558.81;;;19.92;64.94
69751;BME280;57335;52.288;6.056;2022-10-16T12:02:08;101555.84;;;19.89;62.54
69751;BME280;57335;52.288;6.056;2022-10-16T12:04:45;101559.59;;;19.93;63.36
69751;BME280;57335;52.288;6.056;2022-10-16T12:07:18;101564.91;;;19.93;63.86
69751;BME280;57335;52.288;6.056;2022-10-16T12:09:46;101555.84;;;19.89;61.80
69751;BME280;57335;52.288;6.056;2022-10-16T12:12:39;101563.34;;;19.97;63.33
69751;BME280;57335;52.288;6.056;2022-10-16T12:17:52;101553.84;;;20.06;63.85
69751;BME280;57335;52.288;6.056;2022-10-16T12:20:26;101562.50;;;20.19;63.09
69751;BME280;57335;52.288;6.056;2022-10-16T12:23:02;101570.50;;;20.24;61.37
69751;BME280;57335;52.288;6.056;2022-10-16T12:25:38;101575.91;;;20.29;60.66
69751;BME280;57335;52.288;6.056;2022-10-16T12:30:41;101578.81;;;20.27;60.94
69751;BME280;57335;52.288;6.056;2022-10-16T12:33:29;101579.56;;;20.23;57.90
69751;BME280;57335;52.288;6.056;2022-10-16T12:35:58;101576.09;;;20.22;60.51
69751;BME280;57335;52.288;6.056;2022-10-16T12:38:51;101575.19;;;20.11;58.96
69751;BME280;57335;52.288;6.056;2022-10-16T12:41:33;101585.22;;;20.04;58.88
69751;BME280;57335;52.288;6.056;2022-10-16T12:43:59;101581.47;;;20.00;58.78
69751;BME280;57335;52.288;6.056;2022-10-16T12:51:41;101591.34;;;19.78;59.38
69751;BME280;57335;52.288;6.056;2022-10-16T12:54:36;101591.84;;;19.75;59.31
69751;BME280;57335;52.288;6.056;2022-10-16T12:57:13;101587.47;;;19.68;57.40
69751;BME280;57335;52.288;6.056;2022-10-16T13:00:04;101589.28;;;19.63;56.70
69751;BME280;57335;52.288;6.056;2022-10-16T13:02:46;101603.59;;;19.57;59.81
69751;BME280;57335;52.288;6.056;2022-10-16T13:08:40;101599.38;;;19.39;60.93
69751;BME280;57335;52.288;6.056;2022-10-16T13:14:04;101602.75;;;19.34;60.20
69751;BME280;57335;52.288;6.056;2022-10-16T13:28:10;101603.28;;;19.14;63.16
69751;BME280;57335;52.288;6.056;2022-10-16T13:30:51;101607.00;;;19.13;63.11
69751;BME280;57335;52.288;6.056;2022-10-16T13:33:32;101613.84;;;19.09;63.92
69751;BME280;57335;52.288;6.056;2022-10-16T13:35:59;101614.59;;;19.04;63.54
69751;BME280;57335;52.288;6.056;2022-10-16T13:38:29;101606.28;;;19.01;62.95
69751;BME280;57335;52.288;6.056;2022-10-16T13:41:00;101609.75;;;19.01;62.06
69751;BME280;57335;52.288;6.056;2022-10-16T13:43:38;101619.81;;;18.99;62.19
69751;BME280;57335;52.288;6.056;2022-10-16T13:46:20;101619.00;;;18.99;62.15
69751;BME280;57335;52.288;6.056;2022-10-16T13:49:04;101617.16;;;18.99;62.64
69751;BME280;57335;52.288;6.056;2022-10-16T13:51:32;101621.09;;;18.97;62.24
69751;BME280;57335;52.288;6.056;2022-10-16T13:53:59;101622.50;;;18.82;61.52
69751;BME280;57335;52.288;6.056;2022-10-16T13:56:28;101638.66;;;18.81;62.61
69751;BME280;57335;52.288;6.056;2022-10-16T13:59:03;101633.00;;;18.77;63.40
69751;BME280;57335;52.288;6.056;2022-10-16T14:01:43;101632.91;;;18.72;63.90
69751;BME280;57335;52.288;6.056;2022-10-16T14:04:12;101632.91;;;18.72;63.98
69751;BME280;57335;52.288;6.056;2022-10-16T14:06:45;101621.97;;;18.68;63.51
69751;BME280;57335;52.288;6.056;2022-10-16T14:11:49;101619.47;;;18.62;63.93
69751;BME280;57335;52.288;6.056;2022-10-16T14:14:18;101628.47;;;18.61;64.14
69751;BME280;57335;52.288;6.056;2022-10-16T14:16:44;101631.59;;;18.58;64.92
69751;BME280;57335;52.288;6.056;2022-10-16T14:19:30;101640.28;;;18.53;65.12
69751;BME280;57335;52.288;6.056;2022-10-16T14:21:58;101623.41;;;18.42;65.47
69751;BME280;57335;52.288;6.056;2022-10-16T14:24:27;101636.41;;;18.44;65.07
69751;BME280;57335;52.288;6.056;2022-10-16T14:26:57;101637.69;;;18.41;65.08
69751;BME280;57335;52.288;6.056;2022-10-16T14:29:25;101634.16;;;18.36;65.57
69751;BME280;57335;52.288;6.056;2022-10-16T14:32:04;101654.13;;;18.38;65.06
69751;BME280;57335;52.288;6.056;2022-10-16T14:34:34;101656.16;;;18.36;65.75
69751;BME280;57335;52.288;6.056;2022-10-16T14:37:08;101644.91;;;18.29;66.83
69751;BME280;57335;52.288;6.056;2022-10-16T14:39:37;101645.38;;;18.26;66.37
69751;BME280;57335;52.288;6.056;2022-10-16T14:42:03;101645.63;;;18.24;67.14
69751;BME280;57335;52.288;6.056;2022-10-16T14:44:32;101634.56;;;18.16;66.41